createdAt,value
2017-10-14T00:02:25.638Z,17.00
2017-10-14T00:04:53.105Z,17.00
2017-10-14T00:07:20.554Z,17.00
2017-10-14T00:09:48.021Z,17.10
2017-10-14T00:12:15.479Z,17.00
2017-10-14T00:14:42.935Z,17.10
2017-10-14T00:17:10.396Z,17.10
2017-10-14T00:19:37.845Z,17.20
2017-10-14T00:22:05.310Z,17.10
2017-10-14T00:24:32.762Z,17.10
2017-10-14T00:27:00.227Z,17.00
2017-10-14T00:29:27.683Z,17.00
2017-10-14T00:31:55.139Z,17.00
2017-10-14T00:34:22.608Z,17.00
2017-10-14T00:36:50.066Z,17.00
2017-10-14T00:39:17.524Z,17.10
2017-10-14T00:41:44.985Z,17.00
2017-10-14T00:44:12.470Z,17.10
2017-10-14T00:46:40.690Z,17.10
2017-10-14T00:49:08.161Z,17.00
2017-10-14T00:51:35.634Z,17.00
2017-10-14T00:54:03.111Z,17.00
2017-10-14T00:56:31.333Z,16.90
2017-10-14T00:58:58.786Z,16.90
2017-10-14T01:01:26.242Z,17.00
2017-10-14T01:03:53.702Z,17.00
2017-10-14T01:06:21.164Z,17.00
2017-10-14T01:08:48.621Z,17.00
2017-10-14T01:11:16.085Z,17.00
2017-10-14T01:13:43.543Z,17.00
2017-10-14T01:16:11.002Z,17.00
2017-10-14T01:18:38.458Z,17.00
2017-10-14T01:21:05.916Z,17.00
2017-10-14T01:23:33.375Z,17.10
2017-10-14T01:26:00.848Z,17.10
2017-10-14T01:28:28.327Z,17.10
2017-10-14T01:30:56.556Z,17.10
2017-10-14T01:33:24.015Z,17.10
2017-10-14T01:35:51.473Z,17.10
2017-10-14T01:38:18.939Z,17.10
2017-10-14T01:40:46.443Z,17.10
2017-10-14T01:43:14.659Z,17.10
2017-10-14T01:45:42.124Z,17.10
2017-10-14T01:48:09.586Z,17.00
2017-10-14T01:50:37.038Z,17.10
2017-10-14T01:53:04.504Z,17.10
2017-10-14T01:55:31.960Z,17.10
2017-10-14T01:57:59.437Z,17.00
2017-10-14T02:00:27.666Z,17.00
2017-10-14T02:02:55.118Z,17.00
2017-10-14T02:05:22.589Z,17.00
2017-10-14T02:07:50.039Z,17.00
2017-10-14T02:10:17.506Z,17.10
2017-10-14T02:12:45.747Z,17.10
2017-10-14T02:15:13.222Z,17.10
2017-10-14T02:17:40.679Z,17.10
2017-10-14T02:20:08.141Z,17.10
2017-10-14T02:22:35.595Z,17.10
2017-10-14T02:25:03.054Z,17.10
2017-10-14T02:27:30.526Z,17.10
2017-10-14T02:29:57.978Z,17.10
2017-10-14T02:32:25.442Z,17.10
2017-10-14T02:34:52.906Z,17.10
2017-10-14T02:37:20.359Z,17.10
2017-10-14T02:39:47.818Z,17.00
2017-10-14T02:42:15.288Z,17.10
2017-10-14T02:44:42.745Z,17.20
2017-10-14T02:47:10.220Z,17.20
2017-10-14T02:49:37.687Z,17.20
2017-10-14T02:52:05.145Z,17.10
2017-10-14T02:54:32.612Z,17.20
2017-10-14T02:57:00.081Z,17.10
2017-10-14T02:59:27.558Z,17.10
2017-10-14T03:01:55.015Z,17.10
2017-10-14T03:04:23.251Z,17.20
2017-10-14T03:06:50.699Z,17.20
2017-10-14T03:09:18.169Z,17.20
2017-10-14T03:11:45.629Z,17.20
2017-10-14T03:14:13.094Z,17.10
2017-10-14T03:16:40.566Z,17.10
2017-10-14T03:19:08.033Z,17.10
2017-10-14T03:21:35.509Z,17.10
2017-10-14T03:24:02.998Z,17.10
2017-10-14T03:26:30.454Z,17.10
2017-10-14T03:28:57.962Z,17.10
2017-10-14T03:31:25.445Z,17.10
2017-10-14T03:33:52.914Z,17.10
2017-10-14T03:36:20.402Z,17.10
2017-10-14T03:38:47.894Z,17.10
2017-10-14T03:41:15.369Z,17.10
2017-10-14T03:43:42.842Z,17.10
2017-10-14T03:46:11.081Z,17.00
2017-10-14T03:48:38.558Z,17.00
2017-10-14T03:51:06.045Z,17.00
2017-10-14T03:53:33.511Z,17.10
2017-10-14T03:56:01.419Z,17.10
2017-10-14T03:58:28.914Z,17.00
2017-10-14T04:00:56.395Z,17.00
2017-10-14T04:03:23.859Z,17.00
2017-10-14T04:05:51.346Z,17.00
2017-10-14T04:08:18.867Z,17.00
2017-10-14T04:10:46.385Z,17.00
2017-10-14T04:13:13.929Z,17.10
2017-10-14T04:15:41.411Z,17.10
2017-10-14T04:18:09.679Z,17.10
2017-10-14T04:20:37.176Z,17.00
2017-10-14T04:23:04.664Z,17.10
2017-10-14T04:25:32.157Z,17.00
2017-10-14T04:28:00.422Z,17.00
2017-10-14T04:30:27.884Z,17.00
2017-10-14T04:32:55.354Z,17.00
2017-10-14T04:35:23.636Z,17.00
2017-10-14T04:37:52.342Z,17.00
2017-10-14T04:40:19.789Z,17.00
2017-10-14T04:42:47.261Z,17.00
2017-10-14T04:45:14.718Z,17.00
2017-10-14T04:47:42.179Z,17.00
2017-10-14T04:50:09.844Z,17.00
2017-10-14T04:52:37.354Z,17.00
2017-10-14T04:55:04.823Z,17.00
2017-10-14T04:57:32.314Z,17.00
2017-10-14T04:59:59.811Z,17.10
2017-10-14T05:02:27.399Z,17.00
2017-10-14T05:04:54.855Z,17.00
2017-10-14T05:07:22.320Z,17.00
2017-10-14T05:09:49.779Z,16.90
2017-10-14T05:12:17.242Z,16.90
2017-10-14T05:14:44.739Z,16.90
2017-10-14T05:17:12.209Z,16.90
2017-10-14T05:19:40.097Z,16.90
2017-10-14T05:22:07.571Z,16.90
2017-10-14T05:24:35.197Z,17.00
2017-10-14T05:27:02.692Z,16.90
2017-10-14T05:29:30.253Z,16.90
2017-10-14T05:31:58.007Z,17.00
2017-10-14T05:34:25.475Z,17.00
2017-10-14T05:36:52.930Z,17.00
2017-10-14T05:39:21.207Z,17.00
2017-10-14T05:41:48.684Z,17.00
2017-10-14T05:44:16.228Z,16.90
2017-10-14T05:46:43.704Z,16.90
2017-10-14T05:49:11.193Z,16.90
2017-10-14T05:51:38.655Z,16.90
2017-10-14T05:54:06.139Z,16.90
2017-10-14T05:56:33.666Z,17.00
2017-10-14T05:59:01.185Z,17.00
2017-10-14T06:01:28.684Z,17.00
2017-10-14T06:03:56.370Z,17.00
2017-10-14T06:06:23.851Z,17.00
2017-10-14T06:08:51.309Z,17.00
2017-10-14T06:11:18.859Z,17.00
2017-10-14T06:13:46.326Z,17.00
2017-10-14T06:16:13.873Z,17.00
2017-10-14T06:18:41.365Z,17.00
2017-10-14T06:21:08.853Z,17.10
2017-10-14T06:23:36.559Z,17.10
2017-10-14T06:26:04.063Z,17.10
2017-10-14T06:28:31.566Z,17.10
2017-10-14T06:30:59.927Z,17.00
2017-10-14T06:33:27.406Z,17.00
2017-10-14T06:35:54.910Z,16.90
2017-10-14T06:38:22.411Z,17.00
2017-10-14T06:40:50.649Z,17.00
2017-10-14T06:43:18.125Z,17.00
2017-10-14T06:45:45.616Z,17.00
2017-10-14T06:48:13.142Z,17.00
2017-10-14T06:50:40.627Z,16.90
2017-10-14T06:53:08.179Z,16.90
2017-10-14T06:55:35.645Z,17.00
2017-10-14T06:58:03.152Z,17.00
2017-10-14T07:00:30.642Z,17.10
2017-10-14T07:02:58.938Z,17.30
2017-10-14T07:05:26.566Z,17.30
2017-10-14T07:07:54.050Z,17.30
2017-10-14T07:10:21.569Z,17.30
2017-10-14T07:12:49.063Z,17.30
2017-10-14T07:15:17.346Z,17.40
2017-10-14T07:17:44.820Z,17.30
2017-10-14T07:20:12.274Z,17.40
2017-10-14T07:22:39.738Z,17.50
2017-10-14T07:25:07.216Z,17.50
2017-10-14T07:27:34.700Z,17.60
2017-10-14T07:30:02.492Z,17.60
2017-10-14T07:32:30.053Z,17.60
2017-10-14T07:34:58.303Z,17.60
2017-10-14T07:37:25.854Z,17.60
2017-10-14T07:39:53.401Z,17.70
2017-10-14T07:42:21.019Z,17.70
2017-10-14T07:44:48.546Z,17.60
2017-10-14T07:47:16.107Z,17.60
2017-10-14T07:49:44.434Z,17.50
2017-10-14T07:52:12.017Z,17.50
2017-10-14T07:54:39.526Z,17.50
2017-10-14T07:57:06.982Z,17.60
2017-10-14T07:59:34.521Z,17.50
2017-10-14T08:02:02.779Z,17.50
2017-10-14T08:04:30.250Z,17.50
2017-10-14T08:06:58.527Z,17.70
2017-10-14T08:09:26.778Z,17.60
2017-10-14T08:11:54.250Z,17.60
2017-10-14T08:14:21.742Z,17.60
2017-10-14T08:16:49.247Z,17.70
2017-10-14T08:19:16.753Z,17.70
2017-10-14T08:21:44.238Z,17.70
2017-10-14T08:24:11.778Z,17.70
2017-10-14T08:26:39.309Z,17.70
2017-10-14T08:29:06.841Z,17.70
2017-10-14T08:31:34.358Z,17.70
2017-10-14T08:34:02.408Z,17.80
2017-10-14T08:36:29.878Z,17.90
2017-10-14T08:38:57.425Z,17.90
2017-10-14T08:41:24.946Z,17.80
2017-10-14T08:43:52.467Z,17.80
2017-10-14T08:46:19.991Z,17.70
2017-10-14T08:48:48.259Z,17.70
2017-10-14T08:51:19.117Z,17.70
2017-10-14T08:53:46.664Z,17.70
2017-10-14T08:56:14.917Z,17.70
2017-10-14T08:58:42.411Z,17.70
2017-10-14T09:01:09.937Z,17.70
2017-10-14T09:03:37.489Z,17.80
2017-10-14T09:06:04.988Z,17.70
2017-10-14T09:08:32.498Z,17.60
2017-10-14T09:10:59.990Z,17.70
2017-10-14T09:13:27.544Z,17.60
2017-10-14T09:15:55.464Z,17.60
2017-10-14T09:18:22.970Z,17.50
2017-10-14T09:20:51.463Z,17.50
2017-10-14T09:23:19.010Z,17.50
2017-10-14T09:25:48.327Z,17.60
2017-10-14T09:28:15.846Z,17.50
2017-10-14T09:30:43.398Z,17.60
2017-10-14T09:33:11.702Z,17.60
2017-10-14T09:35:40.004Z,17.60
2017-10-14T09:38:07.627Z,17.50
2017-10-14T09:40:35.112Z,17.60
2017-10-14T09:43:02.758Z,17.60
2017-10-14T09:45:30.422Z,17.50
2017-10-14T09:47:58.694Z,17.60
2017-10-14T09:50:26.938Z,17.70
2017-10-14T09:52:54.457Z,17.60
2017-10-14T09:55:22.187Z,17.60
2017-10-14T09:57:49.767Z,17.70
2017-10-14T10:00:17.272Z,17.80
2017-10-14T10:02:45.122Z,17.90
2017-10-14T10:05:12.628Z,18.00
2017-10-14T10:07:40.177Z,18.10
2017-10-14T10:10:07.962Z,18.20
2017-10-14T10:12:35.611Z,18.20
2017-10-14T10:15:03.306Z,18.10
2017-10-14T10:17:31.020Z,18.10
2017-10-14T10:19:58.905Z,18.10
2017-10-14T10:22:26.372Z,18.10
2017-10-14T10:24:54.653Z,18.00
2017-10-14T10:27:22.309Z,18.00
2017-10-14T10:29:50.011Z,17.90
2017-10-14T10:32:17.533Z,17.90
2017-10-14T10:34:45.054Z,17.90
2017-10-14T10:37:12.569Z,17.90
2017-10-14T10:39:40.078Z,17.90
2017-10-14T10:42:07.571Z,17.90
2017-10-14T10:44:35.134Z,17.90
2017-10-14T10:49:40.988Z,17.90
2017-10-14T10:52:08.701Z,17.80
2017-10-14T10:54:53.759Z,17.80
2017-10-14T11:00:34.525Z,17.90
2017-10-14T11:03:02.169Z,17.90
2017-10-14T11:05:29.807Z,18.00
2017-10-14T11:07:57.424Z,18.00
2017-10-14T11:10:24.950Z,17.90
2017-10-14T11:12:53.200Z,18.00
2017-10-14T11:15:20.780Z,17.90
2017-10-14T11:17:48.262Z,17.90
2017-10-14T11:20:15.770Z,17.90
2017-10-14T11:22:43.257Z,17.90
2017-10-14T11:25:10.816Z,17.90
2017-10-14T11:27:38.274Z,17.90
2017-10-14T11:30:05.762Z,17.90
2017-10-14T11:32:33.316Z,17.80
2017-10-14T11:35:00.826Z,17.80
2017-10-14T11:37:28.311Z,17.70
2017-10-14T11:39:57.644Z,17.70
2017-10-14T11:42:25.173Z,17.80
2017-10-14T11:44:53.584Z,17.70
2017-10-14T11:47:21.126Z,17.70
2017-10-14T11:49:48.634Z,17.80
2017-10-14T11:52:16.128Z,17.80
2017-10-14T11:54:43.631Z,17.80
2017-10-14T11:57:11.155Z,17.70
2017-10-14T11:59:38.670Z,17.60
2017-10-14T12:02:06.176Z,17.60
2017-10-14T12:04:33.880Z,17.70
2017-10-14T12:07:01.564Z,17.70
2017-10-14T12:09:29.142Z,17.80
2017-10-14T12:11:56.672Z,17.80
2017-10-14T12:14:24.157Z,17.90
2017-10-14T12:16:52.128Z,17.80
2017-10-14T12:19:19.643Z,17.80
2017-10-14T12:21:47.183Z,17.90
2017-10-14T12:24:14.719Z,17.80
2017-10-14T12:26:43.185Z,17.70
2017-10-14T12:29:10.697Z,17.70
2017-10-14T12:31:38.206Z,17.70
2017-10-14T12:34:05.763Z,17.70
2017-10-14T12:36:33.287Z,17.70
2017-10-14T12:39:00.784Z,17.70
2017-10-14T12:41:28.287Z,17.60
2017-10-14T12:43:55.803Z,17.60
2017-10-14T12:46:23.358Z,17.50
2017-10-14T12:48:50.827Z,17.50
2017-10-14T12:51:18.442Z,17.40
2017-10-14T12:53:46.754Z,17.40
2017-10-14T12:56:14.643Z,17.40
2017-10-14T12:58:42.347Z,17.40
2017-10-14T13:01:10.861Z,17.40
2017-10-14T13:03:38.526Z,17.50
2017-10-14T13:06:06.070Z,17.40
2017-10-14T13:08:33.610Z,17.40
2017-10-14T13:11:01.716Z,17.50
2017-10-14T13:13:29.474Z,17.50
2017-10-14T13:15:57.014Z,17.60
2017-10-14T13:18:25.487Z,17.50
2017-10-14T13:20:53.285Z,17.50
2017-10-14T13:23:21.011Z,17.50
2017-10-14T13:25:48.740Z,17.60
2017-10-14T13:28:16.479Z,17.60
2017-10-14T13:30:47.000Z,17.60
2017-10-14T13:33:14.662Z,17.60
2017-10-14T13:35:42.224Z,17.70
2017-10-14T13:38:10.149Z,17.70
2017-10-14T13:40:37.702Z,17.70
2017-10-14T13:43:05.254Z,17.80
2017-10-14T13:45:32.840Z,17.80
2017-10-14T13:48:00.642Z,17.70
2017-10-14T13:50:28.359Z,17.70
2017-10-14T13:52:56.019Z,17.70
2017-10-14T13:55:23.570Z,17.80
2017-10-14T13:57:51.190Z,17.80
2017-10-14T14:00:18.727Z,17.70
2017-10-14T14:02:46.322Z,17.70
2017-10-14T14:05:13.916Z,17.70
2017-10-14T14:07:41.398Z,17.70
2017-10-14T14:10:09.087Z,17.70
2017-10-14T14:12:36.605Z,17.60
2017-10-14T14:15:04.977Z,17.40
2017-10-14T14:17:32.481Z,17.40
2017-10-14T14:20:00.122Z,17.40
2017-10-14T14:22:27.784Z,17.30
2017-10-14T14:24:55.357Z,17.30
2017-10-14T14:27:22.894Z,17.30
2017-10-14T14:29:50.484Z,17.40
2017-10-14T14:32:17.978Z,17.30
2017-10-14T14:34:45.661Z,17.20
2017-10-14T14:37:13.244Z,17.20
2017-10-14T14:39:40.977Z,17.20
2017-10-14T14:42:08.455Z,17.20
2017-10-14T14:44:36.048Z,17.10
2017-10-14T14:47:03.641Z,17.10
2017-10-14T14:49:31.193Z,17.10
2017-10-14T14:51:58.745Z,17.10
2017-10-14T14:54:26.355Z,17.10
2017-10-14T14:57:04.913Z,17.20
2017-10-14T14:59:32.542Z,17.20
2017-10-14T15:02:01.231Z,17.10
2017-10-14T15:04:28.961Z,17.10
2017-10-14T15:06:56.467Z,17.10
2017-10-14T15:09:23.997Z,17.10
2017-10-14T15:11:51.528Z,17.20
2017-10-14T15:14:19.049Z,17.20
2017-10-14T15:16:46.570Z,17.20
2017-10-14T15:19:14.346Z,17.10
2017-10-14T15:21:42.166Z,17.10
2017-10-14T15:24:13.467Z,17.00
2017-10-14T15:26:41.014Z,17.00
2017-10-14T15:29:08.751Z,16.90
2017-10-14T15:31:47.132Z,17.00
2017-10-14T15:34:14.962Z,17.00
2017-10-14T15:42:58.433Z,16.90
2017-10-14T15:45:37.078Z,17.00
2017-10-14T15:48:28.435Z,17.10
2017-10-14T15:51:07.525Z,17.10
2017-10-14T15:53:39.446Z,17.10
2017-10-14T15:56:07.545Z,17.20
2017-10-14T15:58:36.555Z,17.30
2017-10-14T16:01:11.194Z,17.30
2017-10-14T16:03:40.174Z,17.40
2017-10-14T16:06:09.090Z,17.40
2017-10-14T16:08:37.329Z,17.30
2017-10-14T16:11:05.920Z,17.30
2017-10-14T16:13:33.768Z,17.40
2017-10-14T16:16:01.420Z,17.40
2017-10-14T16:18:29.401Z,17.40
2017-10-14T16:21:00.011Z,17.30
2017-10-14T16:23:27.929Z,17.30
2017-10-14T16:25:55.970Z,17.40
2017-10-14T16:28:24.090Z,17.40
2017-10-14T16:30:56.610Z,17.40
2017-10-14T16:33:24.277Z,17.30
2017-10-14T16:35:51.821Z,17.40
2017-10-14T16:38:19.687Z,17.40
2017-10-14T16:40:47.255Z,17.40
2017-10-14T16:43:15.627Z,17.40
2017-10-14T16:45:43.372Z,17.40
2017-10-14T16:48:11.069Z,17.30
2017-10-14T16:50:38.608Z,17.30
2017-10-14T16:53:10.471Z,17.20
2017-10-14T16:55:38.026Z,17.30
2017-10-14T16:58:05.595Z,17.20
2017-10-14T17:03:06.929Z,17.20
2017-10-14T17:05:34.409Z,17.20
2017-10-14T17:08:02.682Z,17.20
2017-10-14T17:10:30.190Z,17.20
2017-10-14T17:12:57.711Z,17.20
2017-10-14T17:15:25.266Z,17.20
2017-10-14T17:17:52.901Z,17.20
2017-10-14T17:20:20.460Z,17.10
2017-10-14T17:22:47.951Z,17.20
2017-10-14T17:25:15.482Z,17.20
2017-10-14T17:27:43.028Z,17.20
2017-10-14T17:30:10.569Z,17.20
2017-10-14T17:32:38.073Z,17.20
2017-10-14T17:35:05.662Z,17.20
2017-10-14T17:37:33.194Z,17.30
2017-10-14T17:40:00.821Z,17.30
2017-10-14T17:42:28.418Z,17.30
2017-10-14T17:44:55.947Z,17.30
2017-10-14T17:47:23.413Z,17.30
2017-10-14T17:49:50.990Z,17.30
2017-10-14T17:52:21.136Z,17.30
2017-10-14T17:54:48.654Z,17.30
2017-10-14T17:57:16.951Z,17.40
2017-10-14T17:59:44.459Z,17.40
2017-10-14T18:02:11.974Z,17.40
2017-10-14T18:04:39.592Z,17.40
2017-10-14T18:07:07.474Z,17.40
2017-10-14T18:09:35.030Z,17.40
2017-10-14T18:12:03.330Z,17.50
2017-10-14T18:14:30.878Z,17.50
2017-10-14T18:17:00.768Z,17.40
2017-10-14T18:19:28.245Z,17.40
2017-10-14T18:21:55.906Z,17.40
2017-10-14T18:24:24.572Z,17.40
2017-10-14T18:26:52.157Z,17.50
2017-10-14T18:29:19.674Z,17.40
2017-10-14T18:31:48.320Z,17.40
2017-10-14T18:34:16.031Z,17.40
2017-10-14T18:36:43.632Z,17.40
2017-10-14T18:39:11.551Z,17.30
2017-10-14T18:41:39.098Z,17.30
2017-10-14T18:44:06.721Z,17.30
2017-10-14T18:46:37.651Z,17.30
2017-10-14T18:49:05.194Z,17.30
2017-10-14T18:51:35.394Z,17.30
2017-10-14T18:54:02.998Z,17.30
2017-10-14T18:56:30.480Z,17.30
2017-10-14T18:58:58.067Z,17.40
2017-10-14T19:01:25.548Z,17.40
2017-10-14T19:03:53.832Z,17.40
2017-10-14T19:06:21.332Z,17.40
2017-10-14T19:08:48.839Z,17.40
2017-10-14T19:11:16.357Z,17.40
2017-10-14T19:13:43.862Z,17.40
2017-10-14T19:16:11.342Z,17.40
2017-10-14T19:18:38.871Z,17.40
2017-10-14T19:21:06.453Z,17.30
2017-10-14T19:23:34.007Z,17.30
2017-10-14T19:26:01.510Z,17.20
2017-10-14T19:28:30.041Z,17.10
2017-10-14T19:30:58.441Z,17.00
2017-10-14T19:33:25.927Z,17.00
2017-10-14T19:35:53.440Z,17.00
2017-10-14T19:38:21.001Z,17.00
2017-10-14T19:40:48.759Z,17.00
2017-10-14T19:43:16.329Z,16.90
2017-10-14T19:45:43.887Z,16.90
2017-10-14T19:48:11.457Z,16.90
2017-10-14T19:50:39.070Z,16.90
2017-10-14T19:53:08.205Z,16.90
2017-10-14T19:55:36.574Z,16.90
2017-10-14T19:58:15.727Z,16.90
2017-10-14T20:00:51.140Z,16.90
2017-10-14T20:03:19.157Z,16.80
2017-10-14T20:05:46.661Z,16.80
2017-10-14T20:08:15.350Z,16.70
2017-10-14T20:10:43.309Z,16.70
2017-10-14T20:13:10.890Z,16.70
2017-10-14T20:15:45.329Z,16.70
2017-10-14T20:18:16.143Z,16.80
2017-10-14T20:20:45.025Z,16.80
2017-10-14T20:23:14.440Z,16.80
2017-10-14T20:25:42.157Z,16.80
2017-10-14T20:28:09.857Z,16.80
2017-10-14T20:30:37.884Z,16.80
2017-10-14T20:33:09.832Z,16.90
2017-10-14T20:38:43.613Z,16.80
2017-10-14T20:43:53.545Z,16.80
2017-10-14T20:46:24.286Z,16.70
2017-10-14T20:48:52.819Z,16.80
2017-10-14T20:51:22.327Z,16.70
2017-10-14T20:53:49.855Z,16.70
2017-10-14T20:56:18.514Z,16.80
2017-10-14T20:58:48.573Z,16.80
2017-10-14T21:01:18.939Z,16.80
2017-10-14T21:03:46.615Z,16.90
2017-10-14T21:06:17.417Z,16.90
2017-10-14T21:08:45.151Z,16.90
2017-10-14T21:11:16.632Z,16.80
2017-10-14T21:13:50.480Z,16.70
2017-10-14T21:16:20.871Z,16.50
2017-10-14T21:18:48.650Z,16.50
2017-10-14T21:21:19.774Z,16.40
2017-10-14T21:23:48.592Z,16.40
2017-10-14T21:26:16.076Z,16.30
2017-10-14T21:28:44.320Z,16.10
2017-10-14T21:37:14.951Z,15.90
2017-10-14T21:39:44.053Z,15.80
2017-10-14T21:42:13.694Z,15.80
2017-10-14T21:44:41.935Z,15.70
2017-10-14T21:47:09.874Z,15.60
2017-10-14T21:49:47.808Z,15.60
2017-10-14T21:52:17.693Z,15.60
2017-10-14T21:54:51.429Z,15.60
2017-10-14T21:57:24.591Z,15.60
2017-10-14T21:59:54.893Z,15.50
2017-10-14T22:02:24.452Z,15.50
2017-10-14T22:04:52.460Z,15.60
2017-10-14T22:07:20.582Z,15.50
2017-10-14T22:09:49.194Z,15.50
2017-10-14T22:12:18.243Z,15.50
2017-10-14T22:14:50.045Z,15.50
2017-10-14T22:17:18.170Z,15.50
2017-10-14T22:19:47.181Z,15.40
2017-10-14T22:22:17.571Z,15.50
2017-10-14T22:24:47.446Z,15.50
2017-10-14T22:27:16.688Z,15.50
2017-10-14T22:29:48.790Z,15.50
2017-10-14T22:32:20.586Z,15.50
2017-10-14T22:34:50.788Z,15.50
2017-10-14T22:37:18.931Z,15.50
2017-10-14T22:39:52.327Z,15.60
2017-10-14T22:42:23.022Z,15.60
2017-10-14T22:44:52.278Z,15.70
2017-10-14T22:47:21.675Z,15.80
2017-10-14T22:49:49.688Z,15.80
2017-10-14T22:52:18.294Z,15.90
2017-10-14T22:54:50.596Z,16.00
2017-10-14T22:57:19.674Z,16.10
2017-10-14T22:59:49.031Z,16.10
2017-10-14T23:02:18.468Z,16.10
2017-10-14T23:04:46.838Z,16.10
2017-10-14T23:07:16.509Z,16.10
2017-10-14T23:09:45.937Z,16.10
2017-10-14T23:12:14.586Z,16.10
2017-10-14T23:14:43.565Z,16.20
2017-10-14T23:17:16.776Z,16.20
2017-10-14T23:19:46.268Z,16.20
2017-10-14T23:22:14.738Z,16.20
2017-10-14T23:24:43.532Z,16.20
2017-10-14T23:27:12.119Z,16.20
2017-10-14T23:29:42.354Z,16.10
2017-10-14T23:32:10.572Z,16.20
2017-10-14T23:34:40.189Z,16.20
2017-10-14T23:37:08.280Z,16.10
2017-10-14T23:39:37.645Z,16.20
2017-10-14T23:42:05.862Z,16.10
2017-10-14T23:44:34.614Z,16.00
2017-10-14T23:47:02.406Z,16.00
2017-10-14T23:49:31.064Z,16.10
2017-10-14T23:51:58.820Z,16.10
2017-10-14T23:54:27.227Z,16.10
2017-10-14T23:56:55.472Z,16.10
2017-10-14T23:59:24.841Z,16.10
